Time;durP1;ratioP1;P1;durP2;ratioP2;P2;SDS_P1;SDS_P2;PMS_P1;PMS_P2;Temp;Humidity;BMP_temperature;BMP_pressure;BME280_temperature;BME280_humidity;BME280_pressure;Samples;Min_cycle;Max_cycle;Signal;HPM_P1;HPM_P2
2022/02/12 00:00:36;;;;;;;;;76.50;59.75;;;;;;;;5078029;28;45381;-96
2022/02/12 00:03:01;;;;;;;;;70.75;58.25;;;;;;;;5077263;27;45321;-96
2022/02/12 00:05:27;;;;;;;;;75.75;59.75;;;;;;;;5077814;28;47465;-96
2022/02/12 00:07:53;;;;;;;;;73.75;57.25;;;;;;;;5076765;28;46123;-96
2022/02/12 00:10:18;;;;;;;;;71.25;56.50;;;;;;;;5077740;28;45457;-96
2022/02/12 00:12:43;;;;;;;;;70.25;54.00;;;;;;;;5078052;28;45665;-96
2022/02/12 00:15:09;;;;;;;;;65.75;52.25;;;;;;;;5098583;27;48239;-96
2022/02/12 00:17:34;;;;;;;;;70.75;55.25;;;;;;;;5083802;27;45703;-96
2022/02/12 00:19:59;;;;;;;;;66.75;53.75;;;;;;;;5063365;27;45371;-96
2022/02/12 00:22:25;;;;;;;;;65.50;53.75;;;;;;;;5077742;27;45526;-96
2022/02/12 00:24:50;;;;;;;;;70.75;52.25;;;;;;;;5082725;27;47018;-96
2022/02/12 00:27:15;;;;;;;;;69.00;54.25;;;;;;;;5077237;28;45498;-96
2022/02/12 00:29:40;;;;;;;;;73.75;54.25;;;;;;;;5076493;28;45264;-96
2022/02/12 00:32:06;;;;;;;;;68.00;52.00;;;;;;;;5076911;28;45411;-96
2022/02/12 00:37:05;;;;;;;;;68.00;56.00;;;;;;;;5057048;28;45412;-96
2022/02/12 00:39:30;;;;;;;;;69.50;54.50;;;;;;;;5057361;28;45237;-96
2022/02/12 00:41:56;;;;;;;;;74.00;58.25;;;;;;;;5058552;28;45167;-96
2022/02/12 00:44:23;;;;;;;;;75.25;59.75;;;;;;;;5052593;28;48626;-96
2022/02/12 00:46:48;;;;;;;;;72.25;55.50;;;;;;;;5039874;28;45539;-96
2022/02/12 00:49:13;;;;;;;;;73.50;58.00;;;;;;;;5056966;28;45236;-96
2022/02/12 00:51:39;;;;;;;;;67.25;53.75;;;;;;;;5056601;28;45457;-96
2022/02/12 00:54:05;;;;;;;;;69.00;53.75;;;;;;;;5056485;28;46941;-96
2022/02/12 00:56:30;;;;;;;;;66.25;52.50;;;;;;;;5060670;28;45553;-96
2022/02/12 00:58:56;;;;;;;;;68.50;53.50;;;;;;;;5055854;28;45383;-96
2022/02/12 01:01:22;;;;;;;;;68.25;52.00;;;;;;;;5055948;28;45290;-96
2022/02/12 01:03:47;;;;;;;;;55.00;38.25;;;;;;;;5056134;28;47034;-96
2022/02/12 01:06:12;;;;;;;;;65.25;53.50;;;;;;;;5052601;28;45429;-96
2022/02/12 01:08:38;;;;;;;;;67.50;53.25;;;;;;;;5055688;28;45274;-95
2022/02/12 01:11:04;;;;;;;;;68.50;56.50;;;;;;;;5055939;28;45328;-96
2022/02/12 01:13:29;;;;;;;;;70.00;54.50;;;;;;;;5056043;28;47320;-96
2022/02/12 01:15:54;;;;;;;;;64.50;55.00;;;;;;;;5060254;28;45394;-96
2022/02/12 01:18:19;;;;;;;;;63.50;50.75;;;;;;;;5055532;28;45430;-96
2022/02/12 01:20:44;;;;;;;;;66.25;52.25;;;;;;;;5055731;28;45297;-96
2022/02/12 01:23:10;;;;;;;;;66.50;53.00;;;;;;;;5055145;28;47299;-96
2022/02/12 01:25:35;;;;;;;;;54.50;43.25;;;;;;;;5055192;28;45297;-96
2022/02/12 01:28:01;;;;;;;;;65.50;51.50;;;;;;;;5055330;28;45305;-96
2022/02/12 01:30:26;;;;;;;;;67.50;52.75;;;;;;;;5054746;28;45579;-96
2022/02/12 01:32:52;;;;;;;;;71.25;52.75;;;;;;;;5055091;28;47884;-96
2022/02/12 01:35:19;;;;;;;;;74.00;54.00;;;;;;;;5054784;28;45423;-96
2022/02/12 01:40:24;;;;;;;;;63.50;50.00;;;;;;;;5459570;22;45486;-96
2022/02/12 01:42:50;;;;;;;;;64.25;52.25;;;;;;;;5042697;28;47390;-96
2022/02/12 01:45:15;;;;;;;;;61.25;51.25;;;;;;;;5050308;28;46351;-96
2022/02/12 01:47:41;;;;;;;;;51.00;40.75;;;;;;;;5054692;28;45427;-96
2022/02/12 01:50:06;;;;;;;;;65.00;49.75;;;;;;;;5055637;28;45398;-96
2022/02/12 01:52:32;;;;;;;;;65.75;52.00;;;;;;;;5054639;28;47342;-96
2022/02/12 01:54:57;;;;;;;;;65.00;48.50;;;;;;;;5055868;28;45494;-96
2022/02/12 01:57:28;;;;;;;;;50.50;43.25;;;;;;;;5060271;28;45519;-96
2022/02/12 01:59:53;;;;;;;;;52.25;44.00;;;;;;;;5057312;28;45374;-96
2022/02/12 02:02:18;;;;;;;;;47.50;42.25;;;;;;;;5058995;28;46972;-96
2022/02/12 02:04:44;;;;;;;;;36.75;33.50;;;;;;;;5060528;28;44782;-96
2022/02/12 02:07:10;;;;;;;;;17.00;13.00;;;;;;;;5060088;28;44845;-96
2022/02/12 02:09:36;;;;;;;;;15.50;14.75;;;;;;;;5061040;28;45558;-96
2022/02/12 02:12:01;;;;;;;;;13.50;10.25;;;;;;;;5060989;28;47028;-96
2022/02/12 02:14:35;;;;;;;;;12.25;10.00;;;;;;;;5062721;28;45476;-96
2022/02/12 02:17:00;;;;;;;;;14.00;11.00;;;;;;;;5075316;28;44947;-94
2022/02/12 02:19:25;;;;;;;;;14.25;11.75;;;;;;;;5109705;22;45199;-95
2022/02/12 02:21:52;;;;;;;;;9.25;9.25;;;;;;;;5066725;28;46950;-95
2022/02/12 02:24:18;;;;;;;;;12.25;10.00;;;;;;;;5067495;28;45232;-94
2022/02/12 02:26:43;;;;;;;;;9.25;9.25;;;;;;;;5066940;28;44795;-95
2022/02/12 02:29:08;;;;;;;;;13.25;10.75;;;;;;;;5055928;28;45576;-95
2022/02/12 02:31:34;;;;;;;;;13.00;10.00;;;;;;;;5017218;28;47145;-96
2022/02/12 02:34:05;;;;;;;;;12.50;9.75;;;;;;;;5037929;28;45942;-96
2022/02/12 02:36:31;;;;;;;;;12.50;10.75;;;;;;;;5046788;28;45541;-96
2022/02/12 02:38:56;;;;;;;;;14.50;14.00;;;;;;;;5045752;28;45546;-96
2022/02/12 02:41:21;;;;;;;;;10.00;9.25;;;;;;;;5050672;28;46988;-96
2022/02/12 02:43:46;;;;;;;;;12.75;10.00;;;;;;;;5037910;28;45494;-96
2022/02/12 02:46:11;;;;;;;;;12.00;10.75;;;;;;;;5040716;28;45847;-96
2022/02/12 02:48:37;;;;;;;;;9.50;9.50;;;;;;;;5052131;28;45467;-96
2022/02/12 02:56:30;;;;;;;;;12.25;10.75;;;;;;;;5027975;28;45368;-96
2022/02/12 02:58:59;;;;;;;;;14.25;11.25;;;;;;;;5042384;28;46010;-96
2022/02/12 03:01:25;;;;;;;;;14.75;12.25;;;;;;;;5037401;28;47353;-95
2022/02/12 03:03:51;;;;;;;;;12.00;12.00;;;;;;;;5037259;28;45391;-96
2022/02/12 03:06:17;;;;;;;;;14.50;14.50;;;;;;;;5037254;28;45202;-96
2022/02/12 03:08:43;;;;;;;;;11.75;11.00;;;;;;;;5037314;28;45643;-96
2022/02/12 03:11:09;;;;;;;;;11.50;11.50;;;;;;;;5043206;28;46791;-96
2022/02/12 03:13:34;;;;;;;;;14.75;11.00;;;;;;;;5056141;28;45747;-96
2022/02/12 03:15:59;;;;;;;;;12.50;10.00;;;;;;;;5054990;28;45505;-96
2022/02/12 03:18:25;;;;;;;;;9.50;9.50;;;;;;;;5040007;28;45684;-96
2022/02/12 03:20:51;;;;;;;;;12.75;10.00;;;;;;;;5054746;28;47409;-96
2022/02/12 03:23:16;;;;;;;;;11.33;9.67;;;;;;;;5043678;28;45265;-96
2022/02/12 03:25:42;;;;;;;;;11.00;11.00;;;;;;;;5037561;28;45424;-96
2022/02/12 03:28:07;;;;;;;;;10.00;9.25;;;;;;;;5037650;28;45274;-96
2022/02/12 03:30:37;;;;;;;;;11.00;10.33;;;;;;;;5050380;28;46979;-95
2022/02/12 03:33:03;;;;;;;;;10.75;10.75;;;;;;;;5043264;28;45628;-96
2022/02/12 03:35:28;;;;;;;;;18.25;12.75;;;;;;;;5046543;28;45691;-96
2022/02/12 03:38:26;;;;;;;;;10.00;10.00;;;;;;;;5054124;28;45320;-96
2022/02/12 03:41:00;;;;;;;;;14.50;12.00;;;;;;;;4968290;28;47871;-96
2022/02/12 03:43:26;;;;;;;;;10.00;10.00;;;;;;;;5003619;28;44993;-96
2022/02/12 03:45:53;;;;;;;;;12.00;10.33;;;;;;;;4967303;28;45479;-96
2022/02/12 03:48:18;;;;;;;;;12.00;9.67;;;;;;;;4967899;28;44985;-96
2022/02/12 03:50:43;;;;;;;;;17.25;11.50;;;;;;;;4964098;28;47482;-96
2022/02/12 03:53:09;;;;;;;;;21.75;19.75;;;;;;;;4940984;28;45387;-96
2022/02/12 03:55:39;;;;;;;;;39.00;31.00;;;;;;;;4940453;28;45619;-96
2022/02/12 03:58:06;;;;;;;;;34.25;29.00;;;;;;;;4945523;28;45506;-96
2022/02/12 04:00:31;;;;;;;;;35.75;33.25;;;;;;;;4940351;28;47493;-96
2022/02/12 04:02:57;;;;;;;;;35.25;29.00;;;;;;;;4956358;28;45472;-96
2022/02/12 04:05:22;;;;;;;;;30.50;28.25;;;;;;;;4957070;28;45402;-96
2022/02/12 04:07:48;;;;;;;;;28.75;26.50;;;;;;;;4955665;28;45506;-96
2022/02/12 04:10:14;;;;;;;;;39.00;31.75;;;;;;;;4940390;28;46997;-96
2022/02/12 04:12:40;;;;;;;;;35.25;31.00;;;;;;;;4956361;28;45556;-96
2022/02/12 04:17:49;;;;;;;;;40.75;33.25;;;;;;;;5034943;28;46122;-96
2022/02/12 04:20:16;;;;;;;;;37.25;34.50;;;;;;;;5035389;28;48566;-96
2022/02/12 04:22:42;;;;;;;;;44.75;38.25;;;;;;;;5035762;28;45627;-96
2022/02/12 04:25:12;;;;;;;;;36.25;33.75;;;;;;;;5036015;28;45386;-96
2022/02/12 04:27:38;;;;;;;;;39.75;36.00;;;;;;;;5032969;28;45551;-96
2022/02/12 04:30:04;;;;;;;;;31.50;31.50;;;;;;;;5030165;28;48627;-96
2022/02/12 04:32:30;;;;;;;;;30.00;28.25;;;;;;;;5032691;28;46266;-96
2022/02/12 04:34:55;;;;;;;;;45.25;36.00;;;;;;;;5035808;28;45461;-96
2022/02/12 04:37:21;;;;;;;;;39.50;34.75;;;;;;;;5035568;28;45487;-96
2022/02/12 04:39:47;;;;;;;;;38.00;31.75;;;;;;;;5035594;28;47250;-96
2022/02/12 04:42:12;;;;;;;;;34.75;32.00;;;;;;;;5035477;28;45301;-96
2022/02/12 04:44:41;;;;;;;;;39.75;36.25;;;;;;;;5035682;28;45386;-96
2022/02/12 04:47:07;;;;;;;;;34.00;32.00;;;;;;;;5031246;28;45457;-96
2022/02/12 04:49:33;;;;;;;;;35.50;33.00;;;;;;;;5033461;28;47198;-96
2022/02/12 04:51:58;;;;;;;;;42.00;40.00;;;;;;;;5035611;28;45241;-96
2022/02/12 04:54:24;;;;;;;;;33.75;33.00;;;;;;;;5031090;28;45365;-96
2022/02/12 04:56:49;;;;;;;;;39.75;32.75;;;;;;;;5027421;28;45281;-95
2022/02/12 04:59:14;;;;;;;;;40.50;31.00;;;;;;;;5041774;28;48015;-96
2022/02/12 05:01:40;;;;;;;;;35.25;31.75;;;;;;;;5050505;28;45429;-96
2022/02/12 05:04:05;;;;;;;;;43.25;35.00;;;;;;;;5035243;28;45351;-96
2022/02/12 05:06:30;;;;;;;;;38.00;32.00;;;;;;;;5036019;28;45544;-96
2022/02/12 05:08:56;;;;;;;;;43.50;38.25;;;;;;;;5035721;28;48031;-96
2022/02/12 05:11:21;;;;;;;;;37.00;33.50;;;;;;;;5040035;28;45433;-96
2022/02/12 05:13:46;;;;;;;;;38.50;32.25;;;;;;;;5035886;28;45273;-96
2022/02/12 05:16:11;;;;;;;;;37.25;28.25;;;;;;;;5035663;28;45383;-95
2022/02/12 05:18:36;;;;;;;;;38.75;32.00;;;;;;;;5035469;28;47073;-96
2022/02/12 05:21:03;;;;;;;;;33.25;32.75;;;;;;;;5035445;28;45396;-96
2022/02/12 05:23:28;;;;;;;;;36.00;30.75;;;;;;;;5032187;28;45375;-96
2022/02/12 05:25:53;;;;;;;;;37.00;34.00;;;;;;;;5020612;28;45969;-96
2022/02/12 05:28:18;;;;;;;;;31.50;30.00;;;;;;;;5073393;22;47103;-96
2022/02/12 05:30:44;;;;;;;;;42.50;32.00;;;;;;;;5034832;28;45651;-96
2022/02/12 05:33:09;;;;;;;;;32.75;32.75;;;;;;;;5039788;28;45302;-96
2022/02/12 05:35:35;;;;;;;;;36.75;30.75;;;;;;;;5035139;28;45680;-95
2022/02/12 05:38:00;;;;;;;;;35.25;34.75;;;;;;;;5034811;28;47211;-96
2022/02/12 05:40:26;;;;;;;;;31.75;24.75;;;;;;;;5035236;28;45364;-96
2022/02/12 05:42:51;;;;;;;;;32.75;31.00;;;;;;;;5031871;28;45456;-96
2022/02/12 05:45:16;;;;;;;;;39.00;33.25;;;;;;;;5035135;28;45223;-96
2022/02/12 05:47:42;;;;;;;;;30.75;26.25;;;;;;;;5029557;28;48645;-96
2022/02/12 05:50:08;;;;;;;;;34.00;31.25;;;;;;;;5026004;28;45339;-96
2022/02/12 05:52:33;;;;;;;;;30.00;25.50;;;;;;;;5034696;28;45526;-96
2022/02/12 05:54:58;;;;;;;;;45.00;33.00;;;;;;;;5035176;28;45460;-95
2022/02/12 05:57:23;;;;;;;;;35.75;27.75;;;;;;;;5034981;28;47399;-96
2022/02/12 05:59:49;;;;;;;;;33.00;30.25;;;;;;;;5034404;28;45515;-96
2022/02/12 06:02:14;;;;;;;;;35.75;30.50;;;;;;;;5041929;28;45381;-96
2022/02/12 06:04:39;;;;;;;;;40.00;31.25;;;;;;;;5034123;28;45592;-96
2022/02/12 06:07:04;;;;;;;;;31.25;27.25;;;;;;;;5033450;28;47901;-96
2022/02/12 06:09:29;;;;;;;;;41.25;35.75;;;;;;;;5060612;28;45335;-96
2022/02/12 06:11:55;;;;;;;;;35.25;30.25;;;;;;;;5044643;28;45434;-96
2022/02/12 06:14:20;;;;;;;;;40.25;32.00;;;;;;;;5036191;28;45477;-96
2022/02/12 06:16:45;;;;;;;;;37.25;33.75;;;;;;;;5038975;28;47237;-96
2022/02/12 06:19:10;;;;;;;;;33.00;28.50;;;;;;;;5038566;28;45506;-96
2022/02/12 06:21:36;;;;;;;;;38.00;27.50;;;;;;;;5047767;28;45364;-96
2022/02/12 06:24:01;;;;;;;;;37.25;30.75;;;;;;;;5027829;28;45269;-96
2022/02/12 06:26:26;;;;;;;;;36.75;30.25;;;;;;;;5027303;28;47056;-95
2022/02/12 06:28:52;;;;;;;;;31.25;26.50;;;;;;;;5047555;28;45402;-96
2022/02/12 06:31:17;;;;;;;;;34.50;28.75;;;;;;;;5062673;28;45422;-96
2022/02/12 06:33:42;;;;;;;;;34.75;30.25;;;;;;;;5053993;28;45444;-96
2022/02/12 06:36:08;;;;;;;;;35.75;29.50;;;;;;;;5050715;28;47070;-96
2022/02/12 06:38:33;;;;;;;;;38.75;28.75;;;;;;;;5041835;28;45323;-96
2022/02/12 06:40:59;;;;;;;;;33.00;31.00;;;;;;;;5056589;28;45222;-96
2022/02/12 06:43:24;;;;;;;;;33.25;32.50;;;;;;;;5056890;28;45508;-96
2022/02/12 06:45:49;;;;;;;;;28.25;27.00;;;;;;;;5043485;28;48296;-96
2022/02/12 06:48:21;;;;;;;;;35.50;34.25;;;;;;;;5049219;27;45132;-96
2022/02/12 06:50:46;;;;;;;;;44.00;32.75;;;;;;;;5044569;28;45527;-96
2022/02/12 06:53:12;;;;;;;;;35.50;33.25;;;;;;;;5060358;28;45522;-96
2022/02/12 06:55:37;;;;;;;;;34.25;29.50;;;;;;;;5057688;28;47206;-96
2022/02/12 06:58:02;;;;;;;;;36.50;32.50;;;;;;;;5052585;28;45649;-96
2022/02/12 07:00:29;;;;;;;;;35.75;32.00;;;;;;;;5054495;28;45316;-96
2022/02/12 07:02:54;;;;;;;;;41.00;32.75;;;;;;;;5048914;28;45494;-96
2022/02/12 07:05:19;;;;;;;;;38.50;32.50;;;;;;;;5049913;28;47319;-96
2022/02/12 07:07:46;;;;;;;;;33.00;28.00;;;;;;;;5040965;28;45264;-96
2022/02/12 07:10:12;;;;;;;;;32.00;28.75;;;;;;;;5050995;28;45469;-96
2022/02/12 07:12:38;;;;;;;;;32.50;28.00;;;;;;;;5062782;28;45379;-96
2022/02/12 07:15:03;;;;;;;;;35.50;30.50;;;;;;;;5043750;28;47590;-96
2022/02/12 07:17:29;;;;;;;;;39.00;28.75;;;;;;;;5046364;28;45598;-86
2022/02/12 07:19:54;;;;;;;;;29.75;28.25;;;;;;;;5059821;28;45489;-85
2022/02/12 07:22:25;;;;;;;;;35.00;32.75;;;;;;;;5058368;28;45414;-84
2022/02/12 07:24:51;;;;;;;;;14.25;11.00;;;;;;;;5053396;28;45461;-84
2022/02/12 07:27:16;;;;;;;;;38.50;33.00;;;;;;;;5052601;28;45329;-84
2022/02/12 07:29:41;;;;;;;;;26.25;26.25;;;;;;;;5066481;28;45659;-84
2022/02/12 07:32:06;;;;;;;;;31.50;26.75;;;;;;;;5069219;28;45348;-84
2022/02/12 07:34:32;;;;;;;;;33.00;30.50;;;;;;;;5050953;28;47345;-85
2022/02/12 07:36:57;;;;;;;;;35.75;25.00;;;;;;;;5041477;28;45680;-84
2022/02/12 07:39:23;;;;;;;;;35.75;30.50;;;;;;;;5058894;28;45648;-84
2022/02/12 07:41:48;;;;;;;;;34.00;31.25;;;;;;;;5067607;28;45412;-84
2022/02/12 07:44:13;;;;;;;;;33.75;30.50;;;;;;;;5054251;28;46257;-84
2022/02/12 07:46:38;;;;;;;;;34.00;29.25;;;;;;;;5064442;28;45459;-84
2022/02/12 07:49:03;;;;;;;;;34.25;30.00;;;;;;;;5071037;28;45389;-85
2022/02/12 07:51:29;;;;;;;;;32.25;30.00;;;;;;;;5056657;28;45574;-84
2022/02/12 07:53:54;;;;;;;;;40.00;30.00;;;;;;;;5042666;28;48399;-85
2022/02/12 07:56:19;;;;;;;;;35.50;33.75;;;;;;;;5034930;28;45621;-84
2022/02/12 07:58:45;;;;;;;;;38.25;34.50;;;;;;;;5051576;28;45378;-85
2022/02/12 08:01:11;;;;;;;;;33.50;29.50;;;;;;;;5066998;28;45398;-84
2022/02/12 08:03:36;;;;;;;;;35.75;34.25;;;;;;;;5056297;28;46761;-84
2022/02/12 08:06:01;;;;;;;;;32.00;29.50;;;;;;;;5059860;28;45772;-84
2022/02/12 08:08:26;;;;;;;;;40.00;35.25;;;;;;;;5055152;28;45626;-85
2022/02/12 08:13:35;;;;;;;;;24.00;17.75;;;;;;;;5049670;28;45492;-84
2022/02/12 08:16:01;;;;;;;;;17.25;15.75;;;;;;;;5058756;28;45455;-84
2022/02/12 08:18:26;;;;;;;;;11.75;11.00;;;;;;;;5055319;28;45544;-84
2022/02/12 08:20:51;;;;;;;;;9.50;8.00;;;;;;;;5052494;28;45781;-83
2022/02/12 08:23:17;;;;;;;;;13.00;9.50;;;;;;;;5063707;28;45698;-85
2022/02/12 08:25:42;;;;;;;;;14.00;11.25;;;;;;;;5056104;28;45374;-85
2022/02/12 08:28:07;;;;;;;;;14.25;9.00;;;;;;;;5064948;28;45393;-85
2022/02/12 08:30:33;;;;;;;;;9.50;7.75;;;;;;;;5054316;28;45584;-84
2022/02/12 08:32:58;;;;;;;;;9.00;9.00;;;;;;;;5036652;28;47012;-84
2022/02/12 08:35:23;;;;;;;;;12.50;12.50;;;;;;;;5034919;28;45456;-84
2022/02/12 08:37:48;;;;;;;;;15.00;9.25;;;;;;;;5053225;28;45431;-84
2022/02/12 08:40:22;;;;;;;;;19.25;15.25;;;;;;;;5049691;28;45499;-84
2022/02/12 08:42:48;;;;;;;;;14.00;13.00;;;;;;;;5052196;28;46336;-84
2022/02/12 08:45:14;;;;;;;;;18.75;13.00;;;;;;;;5055368;28;45547;-84
2022/02/12 08:47:39;;;;;;;;;14.50;10.75;;;;;;;;5059921;28;45421;-85
2022/02/12 08:50:16;;;;;;;;;17.00;14.25;;;;;;;;5082861;28;45323;-86
2022/02/12 08:55:21;;;;;;;;;14.00;11.75;;;;;;;;5257238;22;44833;-85
2022/02/12 08:57:46;;;;;;;;;10.50;10.00;;;;;;;;5068778;28;45652;-86
2022/02/12 09:00:12;;;;;;;;;9.50;9.50;;;;;;;;5064804;28;44851;-86
2022/02/12 09:02:37;;;;;;;;;13.00;11.00;;;;;;;;5070621;28;47403;-85
2022/02/12 09:05:03;;;;;;;;;11.75;10.00;;;;;;;;5070178;28;45884;-86
2022/02/12 09:07:28;;;;;;;;;10.75;10.00;;;;;;;;5059498;27;45315;-85
2022/02/12 09:09:54;;;;;;;;;11.25;10.00;;;;;;;;5068833;27;45929;-88
2022/02/12 09:12:19;;;;;;;;;13.25;9.75;;;;;;;;5064099;27;45546;-85
2022/02/12 09:14:44;;;;;;;;;10.25;10.25;;;;;;;;5064546;28;45545;-86
2022/02/12 09:17:10;;;;;;;;;13.00;10.75;;;;;;;;5050955;28;45697;-85
2022/02/12 09:19:35;;;;;;;;;11.00;9.00;;;;;;;;5055913;27;45659;-86
2022/02/12 09:22:01;;;;;;;;;11.25;10.75;;;;;;;;5054836;28;47054;-87
2022/02/12 09:24:26;;;;;;;;;12.75;10.50;;;;;;;;5053298;28;46259;-88
2022/02/12 09:26:52;;;;;;;;;17.00;11.00;;;;;;;;5055376;28;45435;-86
2022/02/12 09:29:17;;;;;;;;;11.75;10.25;;;;;;;;5070341;27;45443;-87
2022/02/12 09:31:42;;;;;;;;;15.00;11.00;;;;;;;;5053431;27;48209;-86
2022/02/12 09:34:08;;;;;;;;;9.00;8.50;;;;;;;;5072336;27;45429;-87
2022/02/12 09:36:33;;;;;;;;;14.25;11.50;;;;;;;;5071538;27;45524;-87
2022/02/12 09:38:59;;;;;;;;;11.50;11.25;;;;;;;;5058931;28;45736;-86
2022/02/12 09:41:26;;;;;;;;;14.50;11.25;;;;;;;;5064535;28;48207;-87
2022/02/12 09:43:55;;;;;;;;;16.50;12.00;;;;;;;;5067691;27;45521;-88
2022/02/12 09:46:23;;;;;;;;;17.50;11.75;;;;;;;;5078049;27;45621;-87
2022/02/12 09:48:48;;;;;;;;;16.25;11.50;;;;;;;;5056290;28;45464;-85
2022/02/12 09:51:13;;;;;;;;;14.50;11.75;;;;;;;;5069197;27;46384;-86
2022/02/12 09:53:39;;;;;;;;;12.25;12.00;;;;;;;;5052432;28;45551;-84
2022/02/12 09:56:05;;;;;;;;;15.25;12.75;;;;;;;;5064101;27;45552;-86
2022/02/12 09:58:30;;;;;;;;;12.75;12.75;;;;;;;;5070294;27;45510;-86
2022/02/12 10:00:55;;;;;;;;;13.50;12.25;;;;;;;;5072269;28;46186;-85
2022/02/12 10:03:20;;;;;;;;;15.25;14.00;;;;;;;;5066870;28;45372;-85
2022/02/12 10:05:53;;;;;;;;;12.75;12.75;;;;;;;;5072409;27;45664;-84
2022/02/12 10:08:19;;;;;;;;;12.75;12.75;;;;;;;;5074250;28;45448;-86
2022/02/12 10:10:46;;;;;;;;;18.25;12.50;;;;;;;;5070782;27;46212;-85
2022/02/12 10:13:22;;;;;;;;;15.25;10.00;;;;;;;;5050722;28;45464;-85
2022/02/12 10:15:57;;;;;;;;;9.50;9.25;;;;;;;;5064070;28;45406;-88
2022/02/12 10:18:23;;;;;;;;;12.75;10.50;;;;;;;;5047242;28;45611;-87
2022/02/12 10:20:48;;;;;;;;;15.00;10.00;;;;;;;;5055548;28;47345;-85
2022/02/12 10:23:15;;;;;;;;;11.00;11.00;;;;;;;;5073410;27;45629;-85
2022/02/12 10:25:46;;;;;;;;;15.50;11.75;;;;;;;;5073154;28;45632;-86
2022/02/12 10:28:12;;;;;;;;;11.25;8.75;;;;;;;;5077616;28;45461;-85
2022/02/12 10:30:38;;;;;;;;;12.75;11.25;;;;;;;;5073863;28;45364;-87
2022/02/12 10:33:04;;;;;;;;;12.50;10.75;;;;;;;;5070412;28;45470;-85
2022/02/12 10:35:30;;;;;;;;;11.00;10.00;;;;;;;;5055179;28;45739;-86
2022/02/12 10:37:58;;;;;;;;;11.75;8.75;;;;;;;;5075761;27;47444;-84
2022/02/12 10:40:23;;;;;;;;;14.50;11.25;;;;;;;;5069328;28;46238;-84
2022/02/12 10:42:50;;;;;;;;;13.50;10.75;;;;;;;;5044816;28;45720;-84
2022/02/12 10:45:18;;;;;;;;;15.00;10.25;;;;;;;;5056198;28;45427;-85
2022/02/12 10:47:44;;;;;;;;;12.00;11.00;;;;;;;;5050323;28;45612;-84
2022/02/12 10:50:10;;;;;;;;;10.67;7.33;;;;;;;;5056711;28;47170;-84
2022/02/12 10:52:43;;;;;;;;;11.33;10.33;;;;;;;;5060359;27;45640;-85
2022/02/12 10:55:19;;;;;;;;;12.00;10.00;;;;;;;;5074802;27;45393;-84
2022/02/12 10:57:45;;;;;;;;;17.67;12.33;;;;;;;;5048705;28;45585;-85
2022/02/12 11:00:10;;;;;;;;;15.67;10.67;;;;;;;;5064971;27;52284;-84
2022/02/12 11:02:37;;;;;;;;;11.00;9.33;;;;;;;;5051948;28;45557;-84
2022/02/12 11:05:03;;;;;;;;;11.00;11.00;;;;;;;;5064950;27;45486;-85
2022/02/12 11:07:28;;;;;;;;;8.33;8.33;;;;;;;;5055101;27;45491;-84
2022/02/12 11:09:54;;;;;;;;;6.67;6.67;;;;;;;;5071578;27;45872;-83
2022/02/12 11:12:22;;;;;;;;;8.33;7.00;;;;;;;;5057210;28;45540;-86
2022/02/12 11:14:47;;;;;;;;;8.67;8.67;;;;;;;;5066814;27;45365;-85
2022/02/12 11:17:18;;;;;;;;;8.00;7.00;;;;;;;;5063820;27;45494;-84
2022/02/12 11:19:44;;;;;;;;;11.67;9.33;;;;;;;;5071107;28;46353;-85
2022/02/12 11:22:10;;;;;;;;;8.33;8.33;;;;;;;;5047364;28;45520;-84
2022/02/12 11:24:37;;;;;;;;;12.00;10.67;;;;;;;;5075575;27;45324;-85
2022/02/12 11:27:14;;;;;;;;;12.33;8.00;;;;;;;;5073149;28;45535;-86
2022/02/12 11:29:44;;;;;;;;;11.00;8.67;;;;;;;;5069815;28;47132;-84
2022/02/12 11:32:20;;;;;;;;;10.00;8.00;;;;;;;;5057649;28;45770;-86
2022/02/12 11:34:55;;;;;;;;;12.33;8.33;;;;;;;;5062681;28;45387;-88
2022/02/12 11:37:20;;;;;;;;;10.33;8.00;;;;;;;;5061699;28;45507;-85
2022/02/12 11:40:04;;;;;;;;;9.00;8.00;;;;;;;;5043058;28;47244;-87
2022/02/12 11:42:38;;;;;;;;;6.00;6.00;;;;;;;;5067494;28;45833;-86
2022/02/12 11:45:15;;;;;;;;;7.00;5.33;;;;;;;;5042921;28;45620;-85
2022/02/12 11:48:00;;;;;;;;;7.00;6.00;;;;;;;;5064659;27;45511;-86
2022/02/12 11:50:39;;;;;;;;;7.67;7.67;;;;;;;;5055686;28;46514;-86
2022/02/12 11:53:04;;;;;;;;;8.33;7.67;;;;;;;;5067135;28;45458;-86
2022/02/12 11:55:33;;;;;;;;;12.33;9.33;;;;;;;;5071376;27;45545;-86
2022/02/12 11:57:59;;;;;;;;;6.33;6.33;;;;;;;;5068490;28;45411;-84
2022/02/12 12:00:34;;;;;;;;;9.67;9.33;;;;;;;;5061922;28;45521;-84
2022/02/12 12:03:06;;;;;;;;;9.00;9.00;;;;;;;;5065029;27;50493;-84
2022/02/12 12:05:32;;;;;;;;;11.33;9.00;;;;;;;;5065173;28;45513;-84
2022/02/12 12:08:00;;;;;;;;;10.00;9.33;;;;;;;;5060189;28;45335;-84
2022/02/12 12:10:26;;;;;;;;;6.67;6.67;;;;;;;;5053737;27;47087;-84
2022/02/12 12:12:53;;;;;;;;;8.33;7.00;;;;;;;;5052573;28;45946;-84
2022/02/12 12:15:20;;;;;;;;;8.00;7.00;;;;;;;;5064496;28;45502;-84
2022/02/12 12:17:53;;;;;;;;;12.33;9.00;;;;;;;;5069040;28;45569;-84
2022/02/12 12:20:18;;;;;;;;;7.00;6.67;;;;;;;;5047285;28;47514;-86
2022/02/12 12:22:44;;;;;;;;;10.33;7.33;;;;;;;;5065911;28;46159;-84
2022/02/12 12:25:09;;;;;;;;;11.67;11.67;;;;;;;;5069676;28;45867;-85
2022/02/12 12:27:34;;;;;;;;;10.00;9.00;;;;;;;;5067234;28;45534;-85
2022/02/12 12:32:56;;;;;;;;;9.67;8.67;;;;;;;;5066907;28;45589;-86
2022/02/12 12:35:22;;;;;;;;;10.33;7.00;;;;;;;;5067683;28;45749;-86
2022/02/12 12:37:51;;;;;;;;;11.67;8.67;;;;;;;;5066288;28;45552;-85
2022/02/12 12:40:17;;;;;;;;;8.33;8.33;;;;;;;;5068495;28;45379;-85
2022/02/12 12:42:42;;;;;;;;;7.67;7.67;;;;;;;;5040882;28;45407;-85
2022/02/12 12:45:11;;;;;;;;;12.67;8.67;;;;;;;;5064544;27;45670;-85
2022/02/12 12:47:37;;;;;;;;;10.00;7.33;;;;;;;;5069575;27;45472;-86
2022/02/12 12:50:03;;;;;;;;;9.00;7.00;;;;;;;;5070650;27;46702;-86
2022/02/12 12:52:31;;;;;;;;;12.00;10.00;;;;;;;;5069500;27;45447;-85
2022/02/12 12:55:08;;;;;;;;;10.33;8.00;;;;;;;;5070217;28;45539;-86
2022/02/12 12:57:39;;;;;;;;;7.67;7.67;;;;;;;;5049403;28;47172;-84
2022/02/12 13:00:05;;;;;;;;;12.00;9.00;;;;;;;;5068508;27;54710;-86
2022/02/12 13:02:30;;;;;;;;;10.33;8.67;;;;;;;;5066616;28;45483;-86
2022/02/12 13:04:56;;;;;;;;;16.33;13.00;;;;;;;;5069124;27;45395;-85
2022/02/12 13:07:26;;;;;;;;;7.00;7.00;;;;;;;;5067700;28;45548;-85
2022/02/12 13:09:52;;;;;;;;;8.33;7.33;;;;;;;;5068901;27;45480;-86
2022/02/12 13:12:29;;;;;;;;;8.33;8.00;;;;;;;;5067974;27;45481;-86
2022/02/12 13:14:55;;;;;;;;;13.33;11.67;;;;;;;;5055463;27;45726;-86
2022/02/12 13:17:20;;;;;;;;;7.33;7.33;;;;;;;;5049951;28;45518;-86
2022/02/12 13:19:47;;;;;;;;;9.00;9.00;;;;;;;;5068573;28;45734;-85
2022/02/12 13:22:13;;;;;;;;;11.33;9.33;;;;;;;;5071119;28;45469;-85
2022/02/12 13:24:39;;;;;;;;;8.00;7.67;;;;;;;;5063399;28;45505;-86
2022/02/12 13:27:09;;;;;;;;;10.33;10.33;;;;;;;;5065772;28;45581;-85
2022/02/12 13:29:35;;;;;;;;;11.67;8.67;;;;;;;;5048090;28;46266;-85
2022/02/12 13:32:04;;;;;;;;;7.67;6.67;;;;;;;;5050970;28;45525;-85
2022/02/12 13:34:30;;;;;;;;;8.00;8.00;;;;;;;;5069522;28;45568;-86
2022/02/12 13:36:57;;;;;;;;;11.33;10.33;;;;;;;;5055073;28;45721;-85
2022/02/12 13:39:22;;;;;;;;;8.00;8.00;;;;;;;;5044974;28;47122;-85
2022/02/12 13:41:52;;;;;;;;;9.67;7.67;;;;;;;;5049263;28;45569;-86
2022/02/12 13:44:30;;;;;;;;;11.67;9.00;;;;;;;;5068537;28;45586;-86
2022/02/12 13:46:57;;;;;;;;;12.00;12.00;;;;;;;;5066304;28;45421;-86
2022/02/12 13:49:24;;;;;;;;;9.00;6.00;;;;;;;;5074377;27;46651;-85
2022/02/12 13:51:54;;;;;;;;;8.00;8.00;;;;;;;;5070234;27;45522;-85
2022/02/12 13:54:20;;;;;;;;;14.33;13.00;;;;;;;;5043730;28;45418;-86
2022/02/12 13:56:48;;;;;;;;;11.00;8.00;;;;;;;;5040366;28;47376;-86
2022/02/12 13:59:13;;;;;;;;;11.33;7.33;;;;;;;;5046024;28;45605;-85
2022/02/12 14:01:38;;;;;;;;;8.67;7.00;;;;;;;;5044873;28;45588;-85
2022/02/12 14:04:03;;;;;;;;;11.00;7.33;;;;;;;;5044846;28;45470;-85
2022/02/12 14:06:29;;;;;;;;;7.67;7.67;;;;;;;;5044254;28;45522;-86
2022/02/12 14:08:56;;;;;;;;;8.00;8.00;;;;;;;;5043182;28;47999;-85
2022/02/12 14:11:21;;;;;;;;;10.67;10.00;;;;;;;;5047569;28;45379;-86
2022/02/12 14:13:47;;;;;;;;;5.67;5.33;;;;;;;;5050108;28;45433;-87
2022/02/12 14:16:13;;;;;;;;;6.67;6.67;;;;;;;;5046504;28;45705;-86
2022/02/12 14:18:38;;;;;;;;;11.67;8.33;;;;;;;;5044534;28;45615;-85
2022/02/12 14:21:05;;;;;;;;;7.67;7.33;;;;;;;;5046126;28;45866;-85
2022/02/12 14:23:30;;;;;;;;;7.67;6.33;;;;;;;;5049329;28;45518;-86
2022/02/12 14:25:55;;;;;;;;;8.00;5.67;;;;;;;;5035822;28;45469;-86
2022/02/12 14:28:21;;;;;;;;;6.00;5.00;;;;;;;;5049604;28;48095;-85
2022/02/12 14:30:46;;;;;;;;;7.00;7.00;;;;;;;;5048090;28;45604;-86
2022/02/12 14:33:11;;;;;;;;;6.67;6.67;;;;;;;;5046654;28;45701;-85
2022/02/12 14:35:37;;;;;;;;;7.67;6.00;;;;;;;;5050637;28;45556;-84
2022/02/12 14:38:02;;;;;;;;;12.33;7.67;;;;;;;;5041478;28;46439;-85
2022/02/12 14:40:28;;;;;;;;;7.00;6.00;;;;;;;;5047217;28;45532;-85